createdAt,value
2019-04-07T00:00:34.284Z,85.00
2019-04-07T00:05:39.602Z,85.20
2019-04-07T00:10:46.853Z,86.10
2019-04-07T00:15:52.379Z,86.20
2019-04-07T00:20:57.830Z,87.50
2019-04-07T00:26:04.131Z,88.00
2019-04-07T00:31:09.763Z,87.80
2019-04-07T00:36:35.033Z,88.10
2019-04-07T00:41:41.762Z,88.50
2019-04-07T00:46:47.655Z,88.60
2019-04-07T00:51:54.699Z,89.50
2019-04-07T00:56:59.919Z,89.80
2019-04-07T01:02:24.680Z,89.70
2019-04-07T01:07:30.112Z,89.50
2019-04-07T01:12:35.843Z,89.80
2019-04-07T01:18:01.098Z,90.20
2019-04-07T01:23:07.305Z,90.50
2019-04-07T01:28:32.826Z,90.90
2019-04-07T01:33:38.914Z,91.00
2019-04-07T01:38:44.497Z,91.20
2019-04-07T01:49:47.643Z,91.10
2019-04-07T01:55:09.454Z,91.00
2019-04-07T02:00:25.795Z,90.90
2019-04-07T02:05:58.696Z,90.70
2019-04-07T02:11:24.962Z,90.40
2019-04-07T02:22:27.242Z,90.40
2019-04-07T02:27:52.100Z,90.70
2019-04-07T02:33:13.286Z,90.90
2019-04-07T02:38:39.237Z,91.50
2019-04-07T02:43:57.907Z,91.20
2019-04-07T02:49:08.899Z,91.60
2019-04-07T03:00:07.790Z,92.20
2019-04-07T03:05:15.550Z,92.50
2019-04-07T03:10:35.106Z,92.60
2019-04-07T03:15:41.832Z,93.10
2019-04-07T03:20:59.413Z,93.80
2019-04-07T03:26:13.404Z,94.10
2019-04-07T03:31:50.439Z,94.50
2019-04-07T03:37:25.943Z,95.00
2019-04-07T03:42:14.528Z,95.00
2019-04-07T03:47:41.744Z,95.10
2019-04-07T03:52:48.994Z,94.90
2019-04-07T03:57:56.939Z,94.70
2019-04-07T04:03:25.756Z,94.70
2019-04-07T04:08:38.381Z,95.40
2019-04-07T04:14:00.067Z,96.20
2019-04-07T04:19:06.629Z,96.60
2019-04-07T04:24:12.372Z,96.60
2019-04-07T04:29:17.882Z,96.30
2019-04-07T04:34:43.213Z,96.20
2019-04-07T04:39:49.124Z,96.40
2019-04-07T04:44:54.455Z,96.60
2019-04-07T04:49:59.842Z,96.90
2019-04-07T04:55:07.160Z,97.20
2019-04-07T05:00:32.337Z,97.10
2019-04-07T05:05:38.030Z,97.30
2019-04-07T05:10:43.987Z,97.70
2019-04-07T05:15:50.115Z,97.80
2019-04-07T05:20:55.427Z,98.10
2019-04-07T05:26:12.345Z,98.40
2019-04-07T05:31:17.749Z,98.30
2019-04-07T05:36:43.328Z,98.10
2019-04-07T05:41:50.319Z,98.10
2019-04-07T05:46:56.054Z,97.90
2019-04-07T05:52:05.239Z,97.90
2019-04-07T05:57:30.773Z,97.90
2019-04-07T06:02:47.112Z,97.90
2019-04-07T06:08:21.060Z,97.70
2019-04-07T06:13:13.901Z,97.40
2019-04-07T06:18:19.464Z,96.70
2019-04-07T06:23:27.530Z,95.30
2019-04-07T06:28:31.887Z,94.30
2019-04-07T06:33:56.795Z,93.90
2019-04-07T06:39:02.668Z,90.10
2019-04-07T06:44:13.302Z,85.10
2019-04-07T06:49:16.306Z,84.10
2019-04-07T06:54:41.221Z,80.60
2019-04-07T07:00:04.263Z,80.10
2019-04-07T07:05:27.880Z,78.70
2019-04-07T07:10:59.703Z,77.60
2019-04-07T07:16:17.001Z,74.60
2019-04-07T07:21:39.765Z,72.30
2019-04-07T07:26:46.171Z,73.10
2019-04-07T07:31:53.107Z,71.90
2019-04-07T07:36:58.952Z,70.90
2019-04-07T07:42:05.108Z,70.50
2019-04-07T07:47:11.831Z,68.40
2019-04-07T07:52:19.672Z,66.60
2019-04-07T07:57:24.881Z,64.00
2019-04-07T08:02:31.160Z,62.30
2019-04-07T08:07:37.255Z,62.60
2019-04-07T08:13:04.997Z,61.60
2019-04-07T08:18:08.753Z,58.50
2019-04-07T08:23:15.552Z,57.30
2019-04-07T08:28:35.139Z,57.10
2019-04-07T08:33:39.268Z,55.80
2019-04-07T08:38:44.594Z,55.20
2019-04-07T08:43:53.245Z,52.00
2019-04-07T08:48:58.096Z,50.60
2019-04-07T08:54:04.741Z,50.20
2019-04-07T08:59:13.884Z,49.60
2019-04-07T09:04:17.812Z,50.10
2019-04-07T09:09:32.586Z,48.50
2019-04-07T09:14:30.626Z,49.60
2019-04-07T09:19:49.611Z,48.30
2019-04-07T09:24:56.748Z,47.40
2019-04-07T09:30:09.659Z,46.90
2019-04-07T09:35:17.748Z,46.90
2019-04-07T09:40:30.556Z,44.60
2019-04-07T09:45:40.127Z,43.70
2019-04-07T09:50:47.068Z,43.90
2019-04-07T09:55:56.317Z,44.50
2019-04-07T10:01:12.096Z,43.90
2019-04-07T10:06:34.380Z,45.50
2019-04-07T10:11:47.405Z,42.00
2019-04-07T10:16:54.378Z,42.30
2019-04-07T10:22:03.979Z,41.20
2019-04-07T10:27:13.269Z,40.90
2019-04-07T10:32:31.893Z,40.90
2019-04-07T10:37:50.235Z,40.30
2019-04-07T10:43:05.298Z,37.80
2019-04-07T10:48:17.934Z,38.20
2019-04-07T10:53:40.704Z,39.80
2019-04-07T10:58:48.282Z,40.00
2019-04-07T11:04:13.831Z,38.10
2019-04-07T11:09:26.631Z,37.20
2019-04-07T11:14:42.989Z,37.70
2019-04-07T11:19:55.246Z,35.90
2019-04-07T11:25:22.832Z,35.80
2019-04-07T11:30:33.239Z,35.60
2019-04-07T11:35:57.436Z,36.20
2019-04-07T11:41:24.148Z,35.30
2019-04-07T11:46:47.193Z,37.10
2019-04-07T11:52:03.606Z,33.70
2019-04-07T11:57:10.890Z,33.40
2019-04-07T12:02:19.033Z,34.30
2019-04-07T12:07:42.749Z,33.10
2019-04-07T12:12:49.752Z,33.30
2019-04-07T12:17:56.819Z,33.70
2019-04-07T12:23:03.713Z,32.70
2019-04-07T12:28:20.378Z,33.30
2019-04-07T12:33:28.560Z,33.80
2019-04-07T12:38:45.119Z,32.40
2019-04-07T12:43:53.951Z,31.80
2019-04-07T12:49:18.898Z,31.40
2019-04-07T12:54:29.103Z,31.60
2019-04-07T12:59:39.174Z,30.70
2019-04-07T13:05:06.455Z,30.00
2019-04-07T13:10:16.104Z,31.60
2019-04-07T13:15:26.055Z,29.80
2019-04-07T13:20:42.537Z,28.80
2019-04-07T13:26:07.885Z,29.70
2019-04-07T13:31:21.266Z,30.50
2019-04-07T13:36:28.405Z,29.90
2019-04-07T13:41:44.242Z,30.10
2019-04-07T13:46:49.321Z,30.60
2019-04-07T13:52:11.770Z,32.50
2019-04-07T13:57:26.004Z,31.10
2019-04-07T14:02:35.754Z,31.00
2019-04-07T14:07:58.972Z,30.50
2019-04-07T14:13:24.527Z,29.20
2019-04-07T14:18:32.080Z,28.30
2019-04-07T14:23:44.810Z,29.80
2019-04-07T14:28:54.370Z,29.30
2019-04-07T14:34:01.255Z,29.80
2019-04-07T14:39:22.027Z,30.00
2019-04-07T14:44:29.281Z,29.10
2019-04-07T14:49:45.754Z,29.50
2019-04-07T14:55:07.523Z,30.60
2019-04-07T15:00:30.002Z,29.80
2019-04-07T15:05:49.475Z,30.30
2019-04-07T15:10:56.495Z,29.50
2019-04-07T15:16:02.318Z,30.00
2019-04-07T15:21:08.154Z,29.00
2019-04-07T15:26:15.760Z,30.10
2019-04-07T15:31:21.921Z,28.70
2019-04-07T15:36:27.587Z,30.00
2019-04-07T15:41:33.073Z,30.10
2019-04-07T15:46:38.035Z,29.10
2019-04-07T15:51:43.350Z,29.70
2019-04-07T15:56:50.162Z,29.50
2019-04-07T16:01:57.294Z,30.00
2019-04-07T16:07:02.790Z,30.40
2019-04-07T16:12:08.026Z,32.10
2019-04-07T16:17:13.212Z,31.90
2019-04-07T16:22:18.476Z,32.70
2019-04-07T16:27:23.961Z,32.90
2019-04-07T16:32:30.782Z,33.70
2019-04-07T16:37:37.555Z,34.10
2019-04-07T16:42:53.849Z,34.50
2019-04-07T16:47:49.986Z,35.10
2019-04-07T16:52:55.364Z,35.50
2019-04-07T16:58:02.016Z,35.20
2019-04-07T17:03:09.941Z,35.60
2019-04-07T17:08:19.577Z,36.50
2019-04-07T17:13:32.099Z,36.80
2019-04-07T17:18:40.920Z,37.30
2019-04-07T17:23:47.502Z,38.00
2019-04-07T17:28:55.702Z,38.60
2019-04-07T17:34:00.685Z,39.00
2019-04-07T17:39:28.599Z,40.30
2019-04-07T17:44:41.460Z,41.10
2019-04-07T17:50:04.532Z,41.30
2019-04-07T17:55:28.605Z,42.10
2019-04-07T18:00:40.927Z,43.70
2019-04-07T18:05:57.735Z,44.90
2019-04-07T18:11:12.987Z,46.60
2019-04-07T18:16:35.312Z,47.50
2019-04-07T18:21:52.765Z,48.40
2019-04-07T18:27:01.792Z,49.50
2019-04-07T18:37:32.406Z,51.20
2019-04-07T18:42:51.380Z,53.00
2019-04-07T18:48:14.695Z,56.50
2019-04-07T18:53:22.113Z,58.20
2019-04-07T18:58:28.839Z,62.40
2019-04-07T19:03:51.922Z,63.50
2019-04-07T19:09:00.999Z,63.90
2019-04-07T19:14:30.798Z,66.90
2019-04-07T19:19:21.961Z,68.80
2019-04-07T19:24:44.828Z,70.30
2019-04-07T19:30:11.610Z,72.10
2019-04-07T19:35:16.207Z,73.10
2019-04-07T19:40:32.087Z,73.60
2019-04-07T19:45:48.950Z,74.30
2019-04-07T19:51:12.468Z,74.00
2019-04-07T19:56:25.229Z,73.60
2019-04-07T20:01:48.676Z,74.30
2019-04-07T20:07:13.659Z,73.80
2019-04-07T20:12:20.696Z,70.00
2019-04-07T20:17:34.361Z,67.60
2019-04-07T20:22:44.426Z,66.50
2019-04-07T20:27:55.743Z,66.30
2019-04-07T20:33:19.150Z,67.20
2019-04-07T20:38:27.650Z,68.70
2019-04-07T20:43:43.570Z,69.70
2019-04-07T20:48:50.311Z,70.10
2019-04-07T20:54:03.467Z,70.70
2019-04-07T20:59:09.779Z,71.00
2019-04-07T21:04:17.990Z,70.90
2019-04-07T21:09:25.649Z,70.60
2019-04-07T21:14:35.206Z,70.10
2019-04-07T21:19:57.691Z,69.60
2019-04-07T21:25:23.891Z,69.30
2019-04-07T21:30:29.110Z,68.40
2019-04-07T21:35:42.654Z,67.50
2019-04-07T21:40:50.155Z,68.10
2019-04-07T21:46:00.444Z,68.60
2019-04-07T21:51:25.425Z,69.20
2019-04-07T21:56:34.786Z,69.50
2019-04-07T22:02:01.295Z,70.20
2019-04-07T22:07:11.220Z,70.60
2019-04-07T22:12:16.790Z,71.00
2019-04-07T22:17:41.160Z,71.30
2019-04-07T22:22:47.136Z,71.90
2019-04-07T22:27:55.528Z,72.70
2019-04-07T22:33:24.277Z,73.40
2019-04-07T22:38:27.338Z,74.10
2019-04-07T22:43:32.738Z,75.00
2019-04-07T22:48:38.479Z,75.10
2019-04-07T22:53:43.961Z,76.00
2019-04-07T22:58:51.949Z,77.30
2019-04-07T23:03:56.853Z,77.90
2019-04-07T23:09:02.033Z,78.40
2019-04-07T23:14:07.510Z,78.90
2019-04-07T23:19:12.878Z,79.80
2019-04-07T23:24:19.144Z,80.90
2019-04-07T23:29:24.799Z,82.00
2019-04-07T23:34:30.973Z,82.70
2019-04-07T23:39:36.535Z,84.10
2019-04-07T23:44:41.813Z,85.50
2019-04-07T23:49:46.963Z,86.40
2019-04-07T23:55:11.479Z,86.90
